sensor_id;sensor_type;location;lat;lon;timestamp;temperature;humidity
15384;DHT22;7790;53.022;12.968;2022-11-27T00:02:51;20.40;48.20
15384;DHT22;7790;53.022;12.968;2022-11-27T00:06:52;20.30;48.20
15384;DHT22;7790;53.022;12.968;2022-11-27T00:10:53;20.30;48.10
15384;DHT22;7790;53.022;12.968;2022-11-27T00:14:54;20.30;48.00
15384;DHT22;7790;53.022;12.968;2022-11-27T00:18:55;20.20;48.00
15384;DHT22;7790;53.022;12.968;2022-11-27T00:22:55;20.20;48.00
15384;DHT22;7790;53.022;12.968;2022-11-27T00:26:56;20.30;48.10
15384;DHT22;7790;53.022;12.968;2022-11-27T00:31:03;20.30;48.30
15384;DHT22;7790;53.022;12.968;2022-11-27T00:35:05;20.40;48.30
15384;DHT22;7790;53.022;12.968;2022-11-27T00:39:06;20.40;48.50
15384;DHT22;7790;53.022;12.968;2022-11-27T00:43:07;20.40;48.40
15384;DHT22;7790;53.022;12.968;2022-11-27T00:47:08;20.40;48.50
15384;DHT22;7790;53.022;12.968;2022-11-27T00:51:12;20.40;48.50
15384;DHT22;7790;53.022;12.968;2022-11-27T00:55:13;20.30;48.30
15384;DHT22;7790;53.022;12.968;2022-11-27T00:59:14;20.30;48.20
15384;DHT22;7790;53.022;12.968;2022-11-27T01:03:14;20.30;48.00
15384;DHT22;7790;53.022;12.968;2022-11-27T01:07:15;20.20;48.00
15384;DHT22;7790;53.022;12.968;2022-11-27T01:11:21;20.30;47.90
15384;DHT22;7790;53.022;12.968;2022-11-27T01:15:24;20.30;48.00
15384;DHT22;7790;53.022;12.968;2022-11-27T01:19:25;20.30;48.10
15384;DHT22;7790;53.022;12.968;2022-11-27T01:23:26;20.40;48.40
15384;DHT22;7790;53.022;12.968;2022-11-27T01:27:27;20.40;48.40
15384;DHT22;7790;53.022;12.968;2022-11-27T01:31:29;20.40;48.30
15384;DHT22;7790;53.022;12.968;2022-11-27T01:35:31;20.40;48.10
15384;DHT22;7790;53.022;12.968;2022-11-27T01:39:32;20.40;48.10
15384;DHT22;7790;53.022;12.968;2022-11-27T01:43:41;20.40;48.10
15384;DHT22;7790;53.022;12.968;2022-11-27T01:47:46;20.30;48.00
15384;DHT22;7790;53.022;12.968;2022-11-27T01:51:59;20.30;47.80
15384;DHT22;7790;53.022;12.968;2022-11-27T01:56:02;20.30;48.00
15384;DHT22;7790;53.022;12.968;2022-11-27T02:00:06;20.30;48.00
15384;DHT22;7790;53.022;12.968;2022-11-27T02:04:13;20.30;48.20
15384;DHT22;7790;53.022;12.968;2022-11-27T02:08:15;20.40;48.30
15384;DHT22;7790;53.022;12.968;2022-11-27T02:12:24;20.30;48.60
15384;DHT22;7790;53.022;12.968;2022-11-27T02:16:30;20.40;48.70
15384;DHT22;7790;53.022;12.968;2022-11-27T02:25:01;20.40;48.20
15384;DHT22;7790;53.022;12.968;2022-11-27T02:29:10;20.40;48.20
15384;DHT22;7790;53.022;12.968;2022-11-27T02:33:16;20.40;48.00
15384;DHT22;7790;53.022;12.968;2022-11-27T02:38:06;20.30;47.90
15384;DHT22;7790;53.022;12.968;2022-11-27T02:42:10;20.20;48.40
15384;DHT22;7790;53.022;12.968;2022-11-27T02:46:13;20.20;48.60
15384;DHT22;7790;53.022;12.968;2022-11-27T02:50:18;20.20;48.60
15384;DHT22;7790;53.022;12.968;2022-11-27T02:54:25;20.20;48.50
15384;DHT22;7790;53.022;12.968;2022-11-27T02:58:27;20.30;48.50
15384;DHT22;7790;53.022;12.968;2022-11-27T03:02:32;20.30;48.20
15384;DHT22;7790;53.022;12.968;2022-11-27T03:06:47;20.30;48.10
15384;DHT22;7790;53.022;12.968;2022-11-27T03:10:57;20.30;48.30
15384;DHT22;7790;53.022;12.968;2022-11-27T03:15:00;20.20;48.30
15384;DHT22;7790;53.022;12.968;2022-11-27T03:23:22;20.10;48.30
15384;DHT22;7790;53.022;12.968;2022-11-27T03:27:28;20.10;48.20
15384;DHT22;7790;53.022;12.968;2022-11-27T03:31:30;20.00;48.50
15384;DHT22;7790;53.022;12.968;2022-11-27T03:35:31;20.00;48.40
15384;DHT22;7790;53.022;12.968;2022-11-27T03:39:32;20.10;48.20
15384;DHT22;7790;53.022;12.968;2022-11-27T03:43:45;20.20;48.00
15384;DHT22;7790;53.022;12.968;2022-11-27T03:56:39;20.50;47.60
15384;DHT22;7790;53.022;12.968;2022-11-27T04:00:42;20.60;47.50
15384;DHT22;7790;53.022;12.968;2022-11-27T04:04:43;20.70;47.40
15384;DHT22;7790;53.022;12.968;2022-11-27T04:08:45;20.80;47.50
15384;DHT22;7790;53.022;12.968;2022-11-27T04:12:46;20.80;47.40
15384;DHT22;7790;53.022;12.968;2022-11-27T04:16:47;20.80;47.50
15384;DHT22;7790;53.022;12.968;2022-11-27T04:20:48;20.70;47.60
15384;DHT22;7790;53.022;12.968;2022-11-27T04:24:50;20.60;47.60
15384;DHT22;7790;53.022;12.968;2022-11-27T04:28:50;20.50;47.70
15384;DHT22;7790;53.022;12.968;2022-11-27T04:32:51;20.50;47.60
15384;DHT22;7790;53.022;12.968;2022-11-27T04:36:52;20.40;47.60
15384;DHT22;7790;53.022;12.968;2022-11-27T04:40:53;20.30;47.60
15384;DHT22;7790;53.022;12.968;2022-11-27T04:44:54;20.30;47.70
15384;DHT22;7790;53.022;12.968;2022-11-27T04:48:55;20.20;47.70
15384;DHT22;7790;53.022;12.968;2022-11-27T04:52:55;20.10;47.70
15384;DHT22;7790;53.022;12.968;2022-11-27T04:56:56;20.00;47.70
15384;DHT22;7790;53.022;12.968;2022-11-27T05:00:57;20.00;47.50
15384;DHT22;7790;53.022;12.968;2022-11-27T05:04:58;19.90;47.90
15384;DHT22;7790;53.022;12.968;2022-11-27T05:08:58;19.90;47.40
15384;DHT22;7790;53.022;12.968;2022-11-27T05:13:01;19.80;47.40
15384;DHT22;7790;53.022;12.968;2022-11-27T05:17:02;19.80;47.40
15384;DHT22;7790;53.022;12.968;2022-11-27T05:21:06;19.70;47.30
15384;DHT22;7790;53.022;12.968;2022-11-27T05:25:07;19.70;47.40
15384;DHT22;7790;53.022;12.968;2022-11-27T05:29:09;19.60;47.40
15384;DHT22;7790;53.022;12.968;2022-11-27T05:33:10;19.50;47.40
15384;DHT22;7790;53.022;12.968;2022-11-27T05:37:11;19.50;47.40
15384;DHT22;7790;53.022;12.968;2022-11-27T05:41:12;19.50;47.50
15384;DHT22;7790;53.022;12.968;2022-11-27T05:45:13;19.40;47.50
15384;DHT22;7790;53.022;12.968;2022-11-27T05:49:15;19.40;47.60
15384;DHT22;7790;53.022;12.968;2022-11-27T05:53:15;19.30;47.60
15384;DHT22;7790;53.022;12.968;2022-11-27T05:57:16;19.20;47.60
15384;DHT22;7790;53.022;12.968;2022-11-27T06:01:18;19.20;47.70
15384;DHT22;7790;53.022;12.968;2022-11-27T06:05:19;19.10;47.70
15384;DHT22;7790;53.022;12.968;2022-11-27T06:09:19;19.10;47.80
15384;DHT22;7790;53.022;12.968;2022-11-27T06:13:20;19.10;47.80
15384;DHT22;7790;53.022;12.968;2022-11-27T06:17:21;19.00;47.90
15384;DHT22;7790;53.022;12.968;2022-11-27T06:21:22;19.00;47.90
15384;DHT22;7790;53.022;12.968;2022-11-27T06:25:25;19.00;48.00
15384;DHT22;7790;53.022;12.968;2022-11-27T06:29:26;18.90;48.00
15384;DHT22;7790;53.022;12.968;2022-11-27T06:33:26;18.90;48.00
15384;DHT22;7790;53.022;12.968;2022-11-27T06:37:27;18.80;48.00
15384;DHT22;7790;53.022;12.968;2022-11-27T06:41:28;18.80;48.10
15384;DHT22;7790;53.022;12.968;2022-11-27T06:45:29;18.80;48.10
15384;DHT22;7790;53.022;12.968;2022-11-27T06:49:30;18.80;48.20
15384;DHT22;7790;53.022;12.968;2022-11-27T06:53:33;18.80;48.20
15384;DHT22;7790;53.022;12.968;2022-11-27T06:57:34;18.80;48.20
15384;DHT22;7790;53.022;12.968;2022-11-27T07:01:35;19.00;47.90
15384;DHT22;7790;53.022;12.968;2022-11-27T07:05:39;19.10;47.80
15384;DHT22;7790;53.022;12.968;2022-11-27T07:09:40;19.20;48.10
15384;DHT22;7790;53.022;12.968;2022-11-27T07:13:41;19.30;47.60
15384;DHT22;7790;53.022;12.968;2022-11-27T07:17:42;19.40;47.50
15384;DHT22;7790;53.022;12.968;2022-11-27T07:21:42;19.50;47.50
15384;DHT22;7790;53.022;12.968;2022-11-27T07:25:43;19.50;47.40
15384;DHT22;7790;53.022;12.968;2022-11-27T07:29:44;19.60;47.30
15384;DHT22;7790;53.022;12.968;2022-11-27T07:33:45;19.70;47.30
15384;DHT22;7790;53.022;12.968;2022-11-27T07:37:46;19.70;47.20
15384;DHT22;7790;53.022;12.968;2022-11-27T07:41:47;19.70;47.20
15384;DHT22;7790;53.022;12.968;2022-11-27T07:45:48;19.80;47.30
15384;DHT22;7790;53.022;12.968;2022-11-27T07:49:49;19.70;47.30
15384;DHT22;7790;53.022;12.968;2022-11-27T07:53:49;19.70;47.50
15384;DHT22;7790;53.022;12.968;2022-11-27T07:57:52;19.60;47.60
15384;DHT22;7790;53.022;12.968;2022-11-27T08:01:53;19.60;47.60
15384;DHT22;7790;53.022;12.968;2022-11-27T08:05:54;19.60;47.70
15384;DHT22;7790;53.022;12.968;2022-11-27T08:09:56;19.60;47.60
15384;DHT22;7790;53.022;12.968;2022-11-27T08:14:04;19.70;47.30
15384;DHT22;7790;53.022;12.968;2022-11-27T08:18:05;19.70;47.20
15384;DHT22;7790;53.022;12.968;2022-11-27T08:22:14;19.80;47.10
15384;DHT22;7790;53.022;12.968;2022-11-27T08:26:15;19.90;47.10
15384;DHT22;7790;53.022;12.968;2022-11-27T08:30:17;20.00;47.80
15384;DHT22;7790;53.022;12.968;2022-11-27T08:34:18;20.00;47.20
15384;DHT22;7790;53.022;12.968;2022-11-27T08:38:20;20.00;47.30
15384;DHT22;7790;53.022;12.968;2022-11-27T08:42:22;20.00;47.30
15384;DHT22;7790;53.022;12.968;2022-11-27T08:46:23;20.10;47.20
15384;DHT22;7790;53.022;12.968;2022-11-27T08:50:24;20.10;47.20
15384;DHT22;7790;53.022;12.968;2022-11-27T08:54:25;20.10;48.10
15384;DHT22;7790;53.022;12.968;2022-11-27T08:58:25;20.20;47.60
15384;DHT22;7790;53.022;12.968;2022-11-27T09:02:26;20.20;47.80
15384;DHT22;7790;53.022;12.968;2022-11-27T09:06:29;20.30;48.00
15384;DHT22;7790;53.022;12.968;2022-11-27T09:10:30;20.30;48.10
15384;DHT22;7790;53.022;12.968;2022-11-27T09:14:31;20.40;48.40
15384;DHT22;7790;53.022;12.968;2022-11-27T09:18:32;20.40;48.30
15384;DHT22;7790;53.022;12.968;2022-11-27T09:22:34;20.50;48.30
15384;DHT22;7790;53.022;12.968;2022-11-27T09:26:35;20.60;48.30
15384;DHT22;7790;53.022;12.968;2022-11-27T09:30:36;20.70;48.30
15384;DHT22;7790;53.022;12.968;2022-11-27T09:34:37;20.70;48.40
15384;DHT22;7790;53.022;12.968;2022-11-27T09:38:38;20.80;48.50
15384;DHT22;7790;53.022;12.968;2022-11-27T09:42:46;20.70;48.70
15384;DHT22;7790;53.022;12.968;2022-11-27T09:46:50;20.70;48.70
15384;DHT22;7790;53.022;12.968;2022-11-27T09:50:51;20.70;48.90
15384;DHT22;7790;53.022;12.968;2022-11-27T09:54:56;20.70;48.90
15384;DHT22;7790;53.022;12.968;2022-11-27T09:59:00;20.70;48.80
15384;DHT22;7790;53.022;12.968;2022-11-27T10:03:01;20.80;48.70
15384;DHT22;7790;53.022;12.968;2022-11-27T10:11:30;20.80;48.30
15384;DHT22;7790;53.022;12.968;2022-11-27T10:15:37;20.90;48.20
15384;DHT22;7790;53.022;12.968;2022-11-27T10:24:13;20.90;48.00
15384;DHT22;7790;53.022;12.968;2022-11-27T10:32:32;20.90;48.00
15384;DHT22;7790;53.022;12.968;2022-11-27T10:36:40;20.80;47.90
15384;DHT22;7790;53.022;12.968;2022-11-27T10:41:13;20.70;48.20
15384;DHT22;7790;53.022;12.968;2022-11-27T10:45:21;20.50;47.40
15384;DHT22;7790;53.022;12.968;2022-11-27T10:49:24;20.60;48.00
15384;DHT22;7790;53.022;12.968;2022-11-27T10:53:33;20.60;47.80
15384;DHT22;7790;53.022;12.968;2022-11-27T10:57:49;20.90;47.30
15384;DHT22;7790;53.022;12.968;2022-11-27T11:01:52;20.90;47.30
15384;DHT22;7790;53.022;12.968;2022-11-27T11:05:56;20.90;47.40
15384;DHT22;7790;53.022;12.968;2022-11-27T11:09:58;20.80;46.40
15384;DHT22;7790;53.022;12.968;2022-11-27T11:13:58;20.40;46.20
15384;DHT22;7790;53.022;12.968;2022-11-27T11:17:59;19.50;41.20
15384;DHT22;7790;53.022;12.968;2022-11-27T11:22:15;16.80;44.30
15384;DHT22;7790;53.022;12.968;2022-11-27T11:30:26;16.00;45.20
15384;DHT22;7790;53.022;12.968;2022-11-27T11:34:29;15.60;46.30
15384;DHT22;7790;53.022;12.968;2022-11-27T11:38:31;14.80;48.50
15384;DHT22;7790;53.022;12.968;2022-11-27T11:42:34;16.30;47.90
15384;DHT22;7790;53.022;12.968;2022-11-27T11:46:36;17.50;46.30
15384;DHT22;7790;53.022;12.968;2022-11-27T11:54:59;14.80;47.60
15384;DHT22;7790;53.022;12.968;2022-11-27T12:21:15;18.00;47.90
15384;DHT22;7790;53.022;12.968;2022-11-27T12:25:35;18.10;47.10
15384;DHT22;7790;53.022;12.968;2022-11-27T12:34:00;18.50;46.10
15384;DHT22;7790;53.022;12.968;2022-11-27T12:50:50;18.70;46.40
15384;DHT22;7790;53.022;12.968;2022-11-27T12:55:04;18.60;45.90
15384;DHT22;7790;53.022;12.968;2022-11-27T12:59:25;18.50;47.00
15384;DHT22;7790;53.022;12.968;2022-11-27T13:03:28;18.70;47.30
15384;DHT22;7790;53.022;12.968;2022-11-27T13:11:39;18.90;46.70
15384;DHT22;7790;53.022;12.968;2022-11-27T13:19:54;19.40;46.50
15384;DHT22;7790;53.022;12.968;2022-11-27T13:23:59;19.50;46.70
15384;DHT22;7790;53.022;12.968;2022-11-27T13:28:02;19.30;46.80
15384;DHT22;7790;53.022;12.968;2022-11-27T13:32:05;19.30;47.00
15384;DHT22;7790;53.022;12.968;2022-11-27T13:36:21;19.20;47.20
15384;DHT22;7790;53.022;12.968;2022-11-27T13:40:27;19.20;47.40
15384;DHT22;7790;53.022;12.968;2022-11-27T13:44:29;19.30;47.30
15384;DHT22;7790;53.022;12.968;2022-11-27T13:48:36;19.40;47.20
15384;DHT22;7790;53.022;12.968;2022-11-27T13:52:56;19.50;47.20
15384;DHT22;7790;53.022;12.968;2022-11-27T13:57:10;19.50;47.20
15384;DHT22;7790;53.022;12.968;2022-11-27T14:01:17;19.40;47.30
15384;DHT22;7790;53.022;12.968;2022-11-27T14:05:21;19.40;47.40
15384;DHT22;7790;53.022;12.968;2022-11-27T14:09:46;19.40;47.40
15384;DHT22;7790;53.022;12.968;2022-11-27T14:13:49;19.40;47.50
15384;DHT22;7790;53.022;12.968;2022-11-27T14:17:53;19.40;47.70
15384;DHT22;7790;53.022;12.968;2022-11-27T14:22:30;19.30;47.60
15384;DHT22;7790;53.022;12.968;2022-11-27T14:26:32;19.40;47.70
15384;DHT22;7790;53.022;12.968;2022-11-27T14:30:55;19.40;47.70
15384;DHT22;7790;53.022;12.968;2022-11-27T14:34:56;19.30;47.70
15384;DHT22;7790;53.022;12.968;2022-11-27T14:38:58;19.30;47.40
15384;DHT22;7790;53.022;12.968;2022-11-27T14:43:19;19.40;47.70
15384;DHT22;7790;53.022;12.968;2022-11-27T14:47:23;19.40;47.80
15384;DHT22;7790;53.022;12.968;2022-11-27T14:51:26;19.50;47.40
15384;DHT22;7790;53.022;12.968;2022-11-27T14:55:28;19.60;47.10
15384;DHT22;7790;53.022;12.968;2022-11-27T14:59:29;19.70;47.00
15384;DHT22;7790;53.022;12.968;2022-11-27T15:03:31;19.70;47.00
15384;DHT22;7790;53.022;12.968;2022-11-27T15:07:34;19.70;46.90
15384;DHT22;7790;53.022;12.968;2022-11-27T15:11:37;19.80;46.90
15384;DHT22;7790;53.022;12.968;2022-11-27T15:15:41;19.70;46.90
15384;DHT22;7790;53.022;12.968;2022-11-27T15:19:43;19.70;47.00
15384;DHT22;7790;53.022;12.968;2022-11-27T15:23:49;19.70;47.20
15384;DHT22;7790;53.022;12.968;2022-11-27T15:27:50;19.70;47.30
15384;DHT22;7790;53.022;12.968;2022-11-27T15:31:52;19.80;47.40
15384;DHT22;7790;53.022;12.968;2022-11-27T15:36:07;19.80;47.60
15384;DHT22;7790;53.022;12.968;2022-11-27T15:40:30;19.80;48.00
15384;DHT22;7790;53.022;12.968;2022-11-27T15:44:31;19.80;48.00
15384;DHT22;7790;53.022;12.968;2022-11-27T15:48:32;19.80;48.10
15384;DHT22;7790;53.022;12.968;2022-11-27T15:52:33;19.70;48.60
15384;DHT22;7790;53.022;12.968;2022-11-27T15:56:34;19.90;49.90
15384;DHT22;7790;53.022;12.968;2022-11-27T16:00:35;19.80;49.50
15384;DHT22;7790;53.022;12.968;2022-11-27T16:04:36;19.80;49.60
15384;DHT22;7790;53.022;12.968;2022-11-27T16:08:37;19.90;49.40
15384;DHT22;7790;53.022;12.968;2022-11-27T16:12:38;20.00;49.30
15384;DHT22;7790;53.022;12.968;2022-11-27T16:16:39;19.90;49.30
15384;DHT22;7790;53.022;12.968;2022-11-27T16:20:40;19.80;49.40
15384;DHT22;7790;53.022;12.968;2022-11-27T16:24:41;19.80;50.00
15384;DHT22;7790;53.022;12.968;2022-11-27T16:28:42;19.80;49.50
15384;DHT22;7790;53.022;12.968;2022-11-27T16:32:42;19.80;49.60
15384;DHT22;7790;53.022;12.968;2022-11-27T16:36:43;19.70;50.70
15384;DHT22;7790;53.022;12.968;2022-11-27T16:40:45;19.70;51.00
15384;DHT22;7790;53.022;12.968;2022-11-27T16:44:46;19.60;50.50
15384;DHT22;7790;53.022;12.968;2022-11-27T16:48:48;19.60;50.70
15384;DHT22;7790;53.022;12.968;2022-11-27T16:52:49;19.60;50.90
15384;DHT22;7790;53.022;12.968;2022-11-27T16:56:50;19.70;50.70
15384;DHT22;7790;53.022;12.968;2022-11-27T17:00:51;19.60;51.40
15384;DHT22;7790;53.022;12.968;2022-11-27T17:04:54;19.60;51.10
15384;DHT22;7790;53.022;12.968;2022-11-27T17:08:57;19.60;51.40
15384;DHT22;7790;53.022;12.968;2022-11-27T17:12:58;19.50;51.50
15384;DHT22;7790;53.022;12.968;2022-11-27T17:16:59;19.50;51.10
15384;DHT22;7790;53.022;12.968;2022-11-27T17:21:01;19.50;50.70
15384;DHT22;7790;53.022;12.968;2022-11-27T17:25:03;19.60;50.70
15384;DHT22;7790;53.022;12.968;2022-11-27T17:29:05;19.60;50.50
15384;DHT22;7790;53.022;12.968;2022-11-27T17:33:06;19.60;50.60
15384;DHT22;7790;53.022;12.968;2022-11-27T17:37:07;19.60;50.50
15384;DHT22;7790;53.022;12.968;2022-11-27T17:41:11;19.60;50.80
15384;DHT22;7790;53.022;12.968;2022-11-27T17:45:12;19.50;50.50
15384;DHT22;7790;53.022;12.968;2022-11-27T17:49:13;19.50;50.60
15384;DHT22;7790;53.022;12.968;2022-11-27T17:53:13;19.50;50.20
15384;DHT22;7790;53.022;12.968;2022-11-27T17:57:14;19.50;50.30
15384;DHT22;7790;53.022;12.968;2022-11-27T18:01:26;19.50;50.40
15384;DHT22;7790;53.022;12.968;2022-11-27T18:05:29;19.50;50.00
15384;DHT22;7790;53.022;12.968;2022-11-27T18:09:30;19.50;49.80
15384;DHT22;7790;53.022;12.968;2022-11-27T18:13:31;19.60;49.80
15384;DHT22;7790;53.022;12.968;2022-11-27T18:17:32;19.50;49.80
15384;DHT22;7790;53.022;12.968;2022-11-27T18:21:34;19.50;49.90
15384;DHT22;7790;53.022;12.968;2022-11-27T18:25:39;19.50;50.00
15384;DHT22;7790;53.022;12.968;2022-11-27T18:29:41;19.40;50.10
15384;DHT22;7790;53.022;12.968;2022-11-27T18:33:44;19.40;50.10
15384;DHT22;7790;53.022;12.968;2022-11-27T18:37:45;19.40;49.80
15384;DHT22;7790;53.022;12.968;2022-11-27T18:41:46;19.40;49.60
15384;DHT22;7790;53.022;12.968;2022-11-27T18:45:47;19.50;49.60
15384;DHT22;7790;53.022;12.968;2022-11-27T18:49:49;19.60;49.70
15384;DHT22;7790;53.022;12.968;2022-11-27T18:53:52;19.70;49.70
15384;DHT22;7790;53.022;12.968;2022-11-27T18:57:53;19.90;49.00
15384;DHT22;7790;53.022;12.968;2022-11-27T19:01:54;20.00;48.60
15384;DHT22;7790;53.022;12.968;2022-11-27T19:05:55;20.20;48.50
15384;DHT22;7790;53.022;12.968;2022-11-27T19:09:56;20.40;48.40
15384;DHT22;7790;53.022;12.968;2022-11-27T19:13:57;20.40;48.40
15384;DHT22;7790;53.022;12.968;2022-11-27T19:17:58;20.40;48.40
15384;DHT22;7790;53.022;12.968;2022-11-27T19:22:00;20.30;48.50
15384;DHT22;7790;53.022;12.968;2022-11-27T19:26:09;20.30;48.80
15384;DHT22;7790;53.022;12.968;2022-11-27T19:30:12;20.20;49.00
15384;DHT22;7790;53.022;12.968;2022-11-27T19:34:14;20.10;49.10
15384;DHT22;7790;53.022;12.968;2022-11-27T19:38:14;20.00;49.20
15384;DHT22;7790;53.022;12.968;2022-11-27T19:42:16;20.00;49.10
15384;DHT22;7790;53.022;12.968;2022-11-27T19:46:28;20.00;49.40
15384;DHT22;7790;53.022;12.968;2022-11-27T19:50:31;20.00;49.70
15384;DHT22;7790;53.022;12.968;2022-11-27T19:54:32;20.00;50.10
15384;DHT22;7790;53.022;12.968;2022-11-27T19:58:33;19.90;50.10
15384;DHT22;7790;53.022;12.968;2022-11-27T20:02:37;19.80;50.00
15384;DHT22;7790;53.022;12.968;2022-11-27T20:06:38;19.80;50.20
15384;DHT22;7790;53.022;12.968;2022-11-27T20:10:39;19.70;50.00
15384;DHT22;7790;53.022;12.968;2022-11-27T20:14:40;19.70;50.20
15384;DHT22;7790;53.022;12.968;2022-11-27T20:18:41;19.70;49.90
15384;DHT22;7790;53.022;12.968;2022-11-27T20:22:42;19.60;49.70
15384;DHT22;7790;53.022;12.968;2022-11-27T20:26:43;19.60;49.60
15384;DHT22;7790;53.022;12.968;2022-11-27T20:30:43;19.50;49.50
15384;DHT22;7790;53.022;12.968;2022-11-27T20:34:44;19.50;49.50
15384;DHT22;7790;53.022;12.968;2022-11-27T20:38:45;19.40;50.40
15384;DHT22;7790;53.022;12.968;2022-11-27T20:42:46;19.40;49.60
15384;DHT22;7790;53.022;12.968;2022-11-27T20:46:48;19.30;49.80
15384;DHT22;7790;53.022;12.968;2022-11-27T20:50:50;19.30;49.40
15384;DHT22;7790;53.022;12.968;2022-11-27T20:54:51;19.30;48.80
15384;DHT22;7790;53.022;12.968;2022-11-27T20:58:54;19.20;49.20
15384;DHT22;7790;53.022;12.968;2022-11-27T21:02:56;19.10;48.70
15384;DHT22;7790;53.022;12.968;2022-11-27T21:06:57;19.10;48.50
15384;DHT22;7790;53.022;12.968;2022-11-27T21:15:09;19.00;48.30
15384;DHT22;7790;53.022;12.968;2022-11-27T21:19:19;18.90;48.30
15384;DHT22;7790;53.022;12.968;2022-11-27T21:23:20;18.90;48.30
15384;DHT22;7790;53.022;12.968;2022-11-27T21:27:21;18.80;48.30
15384;DHT22;7790;53.022;12.968;2022-11-27T21:31:25;18.80;48.40
15384;DHT22;7790;53.022;12.968;2022-11-27T21:35:27;18.70;48.30
15384;DHT22;7790;53.022;12.968;2022-11-27T21:39:28;18.70;48.40
15384;DHT22;7790;53.022;12.968;2022-11-27T21:43:29;18.70;48.50
15384;DHT22;7790;53.022;12.968;2022-11-27T21:47:33;18.60;48.50
15384;DHT22;7790;53.022;12.968;2022-11-27T21:51:34;18.60;48.50
15384;DHT22;7790;53.022;12.968;2022-11-27T21:55:39;18.50;48.60
15384;DHT22;7790;53.022;12.968;2022-11-27T21:59:43;18.50;49.00
15384;DHT22;7790;53.022;12.968;2022-11-27T22:03:44;18.50;48.60
15384;DHT22;7790;53.022;12.968;2022-11-27T22:07:46;18.40;48.60
15384;DHT22;7790;53.022;12.968;2022-11-27T22:11:51;18.40;48.70
15384;DHT22;7790;53.022;12.968;2022-11-27T22:15:52;18.40;48.70
15384;DHT22;7790;53.022;12.968;2022-11-27T22:19:53;18.40;48.70
15384;DHT22;7790;53.022;12.968;2022-11-27T22:23:55;18.60;48.90
15384;DHT22;7790;53.022;12.968;2022-11-27T22:27:56;18.70;49.00
15384;DHT22;7790;53.022;12.968;2022-11-27T22:31:57;18.80;49.40
15384;DHT22;7790;53.022;12.968;2022-11-27T22:36:30;18.90;49.10
15384;DHT22;7790;53.022;12.968;2022-11-27T22:40:33;19.00;49.30
15384;DHT22;7790;53.022;12.968;2022-11-27T22:44:34;19.00;49.20
15384;DHT22;7790;53.022;12.968;2022-11-27T22:48:35;19.10;49.40
15384;DHT22;7790;53.022;12.968;2022-11-27T22:52:36;19.20;49.50
15384;DHT22;7790;53.022;12.968;2022-11-27T22:56:36;19.20;49.40
15384;DHT22;7790;53.022;12.968;2022-11-27T23:00:37;19.30;49.60
15384;DHT22;7790;53.022;12.968;2022-11-27T23:04:39;19.30;49.50
15384;DHT22;7790;53.022;12.968;2022-11-27T23:08:41;19.40;49.60
15384;DHT22;7790;53.022;12.968;2022-11-27T23:12:43;19.40;49.70
15384;DHT22;7790;53.022;12.968;2022-11-27T23:16:44;19.40;49.90
15384;DHT22;7790;53.022;12.968;2022-11-27T23:20:45;19.30;50.00
15384;DHT22;7790;53.022;12.968;2022-11-27T23:24:45;19.30;49.90
15384;DHT22;7790;53.022;12.968;2022-11-27T23:28:48;19.20;49.60
15384;DHT22;7790;53.022;12.968;2022-11-27T23:32:49;19.20;49.60
15384;DHT22;7790;53.022;12.968;2022-11-27T23:36:50;19.30;49.90
15384;DHT22;7790;53.022;12.968;2022-11-27T23:40:51;19.30;49.80
15384;DHT22;7790;53.022;12.968;2022-11-27T23:44:52;19.30;49.80
15384;DHT22;7790;53.022;12.968;2022-11-27T23:48:54;19.40;49.40
15384;DHT22;7790;53.022;12.968;2022-11-27T23:52:55;19.40;49.30
15384;DHT22;7790;53.022;12.968;2022-11-27T23:56:56;19.50;49.50
